Accueil
METAR-TAF:

METAR-TAF

Aéroports :

Aéroport de Vavaʻu

Vavaʻu, Tonga

latitude: 18-35-07S, longitude: 173-57-42W, altitude: 72 m

Observation

Le bulletin a été fait il y a 51 minutes, à 22:00 UTC
Vent 10 kt de est/nord-est
Température 28°C
Humidité 79%
Pression 1016 hPa
Visibilité 10 km ou plus
Nuages épars à une hauteur de 1700 ft

METAR: NFTV 172200Z 07010KT 9999 SCT017 28/24 Q1016

Heure: 11:51 (22:51 UTC)

Prévision

Le bulletin a été fait il y a 5 heures et 24 minutes, à 17:27 UTC
Prévision valable du 17 à 18 UTC au 18 à 18 UTC
Vent 8 kt de est
Visibilité 10 km ou plus
Quelques nuages à une hauteur de 1700 ft

TAF: NFTV 171727Z 1718/1818 09008KT 9999 FEW017

Observations et prévisions météorologiques de plus de 4000 aéroports (messages METAR et TAF).

Les stations disponibles sont représentées par des disques jaunes et rouges sur la carte.

Passer la souris dessus pour voir le nom de la station.

Cliquer dessus pour voir les observations et prévisions météorologiques.

Pour changer de carte: cliquez sur les boutons verts avec une croix noire pour zoomer, sur le bouton vert avec un tiret pour effectuer un zoom arrière, ou sur les flèches vertes pour les cartes adjacentes.


METAR-TAF: